Time;durP1;ratioP1;P1;durP2;ratioP2;P2;SDS_P1;SDS_P2;PMS_P1;PMS_P2;Temp;Humidity;BMP_temperature;BMP_pressure;BME280_temperature;BME280_humidity;BME280_pressure;Samples;Min_cycle;Max_cycle;Signal;HPM_P1;HPM_P2
2022/08/05 00:01:14;;;;;;;26.35;3.80;;;;;;;;;;5014611;28;20088;-58
2022/08/05 00:03:41;;;;;;;23.45;4.28;;;;;;;;;;5014792;28;20124;-61
2022/08/05 00:06:08;;;;;;;22.92;4.03;;;;;;;;;;5014663;28;20125;-61
2022/08/05 00:08:35;;;;;;;27.05;4.20;;;;;;;;;;5014902;28;20052;-58
2022/08/05 00:11:03;;;;;;;19.10;3.72;;;;;;;;;;5013773;28;20029;-60
2022/08/05 00:13:34;;;;;;;22.17;4.07;;;;;;;;;;5018720;28;20025;-61
2022/08/05 00:16:01;;;;;;;24.27;4.25;;;;;;;;;;5018809;28;20450;-60
2022/08/05 00:18:28;;;;;;;17.58;4.18;;;;;;;;;;4997734;28;20026;-57
2022/08/05 00:20:55;;;;;;;21.70;3.97;;;;;;;;;;4993775;28;20042;-59
2022/08/05 00:23:22;;;;;;;20.65;3.88;;;;;;;;;;5012826;28;20484;-59
2022/08/05 00:25:49;;;;;;;21.48;4.43;;;;;;;;;;5012913;28;20523;-59
2022/08/05 00:28:16;;;;;;;22.35;4.50;;;;;;;;;;5013406;28;20030;-56
2022/08/05 00:30:43;;;;;;;30.70;4.63;;;;;;;;;;5004180;28;20034;-56
2022/08/05 00:33:10;;;;;;;44.47;4.75;;;;;;;;;;5005423;28;20115;-61
2022/08/05 00:35:37;;;;;;;27.17;4.82;;;;;;;;;;5013416;28;20029;-58
2022/08/05 00:38:04;;;;;;;24.60;4.80;;;;;;;;;;5013519;28;20057;-56
2022/08/05 00:40:32;;;;;;;27.98;4.80;;;;;;;;;;5013177;28;20026;-56
2022/08/05 00:43:01;;;;;;;31.80;5.78;;;;;;;;;;4995651;28;20073;-60
2022/08/05 00:45:30;;;;;;;31.60;5.30;;;;;;;;;;5013655;28;20030;-56
2022/08/05 00:47:58;;;;;;;21.88;5.03;;;;;;;;;;4990870;28;20126;-57
2022/08/05 00:50:25;;;;;;;22.52;5.30;;;;;;;;;;4999021;28;20030;-57
2022/08/05 00:52:52;;;;;;;26.30;5.38;;;;;;;;;;5012402;28;20109;-59
2022/08/05 00:55:19;;;;;;;19.13;5.03;;;;;;;;;;5012236;28;20029;-60
2022/08/05 00:57:46;;;;;;;18.75;4.90;;;;;;;;;;5012024;28;20080;-59
2022/08/05 01:00:13;;;;;;;20.55;4.90;;;;;;;;;;5012394;28;20460;-57
2022/08/05 01:02:43;;;;;;;19.67;5.05;;;;;;;;;;5011394;28;20508;-56
2022/08/05 01:05:11;;;;;;;19.88;5.68;;;;;;;;;;5012362;28;20033;-57
2022/08/05 01:07:38;;;;;;;23.42;5.47;;;;;;;;;;5012016;28;20033;-56
2022/08/05 01:10:10;;;;;;;22.80;5.50;;;;;;;;;;5005578;28;20042;-59
2022/08/05 01:12:38;;;;;;;25.05;5.47;;;;;;;;;;5004676;28;20025;-58
2022/08/05 01:15:12;;;;;;;20.55;5.10;;;;;;;;;;5010399;28;20053;-60
2022/08/05 01:17:43;;;;;;;17.50;5.55;;;;;;;;;;4991159;28;20388;-59
2022/08/05 01:20:28;;;;;;;24.65;6.68;;;;;;;;;;5001339;28;20026;-56
2022/08/05 01:23:07;;;;;;;25.40;5.80;;;;;;;;;;5012400;28;20046;-59
2022/08/05 01:25:47;;;;;;;19.10;5.65;;;;;;;;;;5013071;28;20037;-58
2022/08/05 01:28:20;;;;;;;21.35;5.55;;;;;;;;;;5012291;28;20141;-58
2022/08/05 01:31:13;;;;;;;15.95;5.45;;;;;;;;;;5012519;28;20030;-56
2022/08/05 01:33:45;;;;;;;23.33;5.75;;;;;;;;;;4992132;28;20037;-56
2022/08/05 01:36:14;;;;;;;21.95;5.70;;;;;;;;;;5017228;28;20030;-59
2022/08/05 01:38:41;;;;;;;16.27;5.28;;;;;;;;;;5012112;28;20026;-55
2022/08/05 01:41:08;;;;;;;32.35;5.85;;;;;;;;;;5011811;28;20165;-58
2022/08/05 01:43:35;;;;;;;20.38;5.70;;;;;;;;;;4998881;28;20030;-57
2022/08/05 01:46:02;;;;;;;21.65;6.03;;;;;;;;;;5012271;28;20044;-58
2022/08/05 01:48:31;;;;;;;18.85;5.55;;;;;;;;;;4994690;28;20121;-58
2022/08/05 01:50:58;;;;;;;22.50;5.57;;;;;;;;;;5012182;28;20088;-56
2022/08/05 01:53:26;;;;;;;20.00;5.35;;;;;;;;;;5012318;28;20646;-58
2022/08/05 01:55:56;;;;;;;19.40;5.25;;;;;;;;;;5010128;28;20029;-59
2022/08/05 01:58:24;;;;;;;16.25;5.18;;;;;;;;;;4991874;28;20361;-54
2022/08/05 02:00:52;;;;;;;20.08;5.70;;;;;;;;;;4990902;28;20038;-58
2022/08/05 02:03:26;;;;;;;19.35;5.68;;;;;;;;;;5006378;28;20124;-58
2022/08/05 02:05:55;;;;;;;18.73;5.70;;;;;;;;;;5012113;28;20022;-59
2022/08/05 02:08:23;;;;;;;19.30;5.93;;;;;;;;;;5012054;28;20034;-61
2022/08/05 02:10:53;;;;;;;22.40;6.65;;;;;;;;;;5011910;28;20460;-59
2022/08/05 02:13:49;;;;;;;23.45;5.97;;;;;;;;;;5012049;28;20022;-59
2022/08/05 02:16:25;;;;;;;24.55;6.05;;;;;;;;;;4975252;28;20042;-61
2022/08/05 02:18:54;;;;;;;20.27;5.43;;;;;;;;;;4992041;28;20034;-61
2022/08/05 02:21:47;;;;;;;18.17;6.10;;;;;;;;;;5004388;28;20042;-59
2022/08/05 02:24:18;;;;;;;21.10;6.07;;;;;;;;;;4988713;28;20058;-58
2022/08/05 02:26:47;;;;;;;21.48;6.13;;;;;;;;;;5010147;28;20053;-59
2022/08/05 02:29:16;;;;;;;17.92;5.70;;;;;;;;;;5012327;28;20058;-57
2022/08/05 02:31:44;;;;;;;18.27;6.43;;;;;;;;;;5012575;28;20391;-57
2022/08/05 02:34:12;;;;;;;22.10;5.95;;;;;;;;;;5012379;28;20030;-57
2022/08/05 02:36:42;;;;;;;17.25;5.80;;;;;;;;;;5011098;28;20030;-55
2022/08/05 02:39:10;;;;;;;18.65;6.03;;;;;;;;;;5010431;28;20103;-60
2022/08/05 02:41:39;;;;;;;23.33;6.38;;;;;;;;;;5010235;28;20026;-57
2022/08/05 02:44:10;;;;;;;20.27;5.90;;;;;;;;;;5010072;28;20399;-58
2022/08/05 02:46:39;;;;;;;23.35;6.15;;;;;;;;;;5009294;28;20480;-56
2022/08/05 02:49:06;;;;;;;14.57;5.65;;;;;;;;;;5011850;28;20092;-54
2022/08/05 02:51:34;;;;;;;18.20;5.80;;;;;;;;;;5012233;28;20037;-55
2022/08/05 02:54:02;;;;;;;19.83;5.93;;;;;;;;;;5011871;28;20495;-54
2022/08/05 02:56:29;;;;;;;18.35;5.47;;;;;;;;;;5012232;28;20026;-57
2022/08/05 02:58:56;;;;;;;17.17;6.07;;;;;;;;;;5012326;28;20122;-55
2022/08/05 03:01:27;;;;;;;15.95;5.80;;;;;;;;;;5012619;28;20030;-58
2022/08/05 03:04:00;;;;;;;13.15;6.10;;;;;;;;;;5012294;28;20057;-55
2022/08/05 03:06:27;;;;;;;20.98;6.80;;;;;;;;;;5012374;28;20066;-54
2022/08/05 03:08:54;;;;;;;17.88;5.85;;;;;;;;;;5012372;28;20041;-55
2022/08/05 03:11:23;;;;;;;18.58;6.00;;;;;;;;;;5012344;28;20061;-57
2022/08/05 03:13:50;;;;;;;18.05;5.65;;;;;;;;;;5013020;28;20053;-55
2022/08/05 03:16:17;;;;;;;16.42;5.28;;;;;;;;;;5016037;28;20029;-54
2022/08/05 03:18:44;;;;;;;13.23;5.18;;;;;;;;;;5016109;28;20514;-53
2022/08/05 03:21:12;;;;;;;20.60;6.50;;;;;;;;;;5015646;28;20135;-55
2022/08/05 03:23:41;;;;;;;12.88;5.50;;;;;;;;;;5015796;28;20092;-54
2022/08/05 03:26:08;;;;;;;14.55;6.05;;;;;;;;;;5015774;28;20112;-57
2022/08/05 03:28:35;;;;;;;16.67;5.85;;;;;;;;;;5015762;28;20443;-56
2022/08/05 03:31:02;;;;;;;17.35;5.32;;;;;;;;;;5015738;28;20073;-53
2022/08/05 03:33:30;;;;;;;16.80;5.32;;;;;;;;;;5015717;28;20038;-56
2022/08/05 03:35:58;;;;;;;17.48;5.68;;;;;;;;;;5015731;28;20068;-56
2022/08/05 03:38:26;;;;;;;18.50;5.53;;;;;;;;;;5015615;28;20033;-57
2022/08/05 03:40:53;;;;;;;16.40;6.18;;;;;;;;;;5015541;28;20507;-53
2022/08/05 03:43:23;;;;;;;11.27;5.40;;;;;;;;;;5015427;28;20038;-54
2022/08/05 03:45:50;;;;;;;12.73;5.50;;;;;;;;;;5015448;28;20462;-57
2022/08/05 03:48:18;;;;;;;13.15;5.80;;;;;;;;;;5015508;28;20025;-57
2022/08/05 03:50:48;;;;;;;16.98;5.72;;;;;;;;;;5015317;28;20096;-54
2022/08/05 03:53:19;;;;;;;11.75;5.00;;;;;;;;;;5015411;28;20029;-55
2022/08/05 03:55:49;;;;;;;14.45;5.35;;;;;;;;;;5015335;28;20033;-57
2022/08/05 03:58:17;;;;;;;14.60;5.20;;;;;;;;;;5015319;28;20049;-54
2022/08/05 04:00:45;;;;;;;12.45;5.30;;;;;;;;;;5015188;28;20575;-53
2022/08/05 04:03:13;;;;;;;13.00;5.15;;;;;;;;;;5015037;28;20034;-57
2022/08/05 04:05:41;;;;;;;10.77;4.57;;;;;;;;;;5015107;28;20087;-57
2022/08/05 04:08:09;;;;;;;10.55;4.72;;;;;;;;;;5015040;28;20045;-54
2022/08/05 04:10:37;;;;;;;10.55;5.05;;;;;;;;;;5013884;28;20030;-55
2022/08/05 04:13:05;;;;;;;12.23;5.03;;;;;;;;;;5015001;28;20044;-54
2022/08/05 04:15:32;;;;;;;11.52;5.30;;;;;;;;;;5014836;28;20030;-56
2022/08/05 04:18:02;;;;;;;10.23;4.75;;;;;;;;;;5014906;28;20034;-55
2022/08/05 04:20:29;;;;;;;8.48;4.15;;;;;;;;;;5013678;28;20036;-54
2022/08/05 04:22:56;;;;;;;12.93;4.50;;;;;;;;;;5014625;28;20045;-57
2022/08/05 04:25:23;;;;;;;8.43;4.43;;;;;;;;;;5014271;28;20026;-53
2022/08/05 04:27:50;;;;;;;9.88;4.78;;;;;;;;;;5014678;28;20032;-56
2022/08/05 04:30:17;;;;;;;11.43;4.90;;;;;;;;;;5014580;28;20026;-56
2022/08/05 04:32:44;;;;;;;10.88;4.30;;;;;;;;;;5014620;28;20049;-58
2022/08/05 04:35:11;;;;;;;11.68;4.60;;;;;;;;;;5014581;28;20057;-55
2022/08/05 04:37:38;;;;;;;12.43;4.82;;;;;;;;;;5014604;28;20030;-58
2022/08/05 04:40:05;;;;;;;10.23;4.63;;;;;;;;;;5014344;28;20028;-57
2022/08/05 04:42:32;;;;;;;8.95;4.05;;;;;;;;;;5014277;28;20030;-55
2022/08/05 04:44:59;;;;;;;10.32;4.20;;;;;;;;;;5014423;28;20026;-55
2022/08/05 04:47:26;;;;;;;7.85;4.30;;;;;;;;;;5014408;28;20037;-57
2022/08/05 04:49:53;;;;;;;11.27;4.45;;;;;;;;;;5014208;28;20050;-55
2022/08/05 04:52:20;;;;;;;9.35;4.28;;;;;;;;;;5014170;28;20018;-57
2022/08/05 04:54:47;;;;;;;8.10;3.80;;;;;;;;;;5014241;28;20059;-53
2022/08/05 04:57:14;;;;;;;13.38;4.47;;;;;;;;;;5014252;28;20365;-55
2022/08/05 04:59:41;;;;;;;11.80;4.22;;;;;;;;;;5014063;28;20476;-57
2022/08/05 05:02:08;;;;;;;9.15;4.00;;;;;;;;;;5014128;28;20488;-56
2022/08/05 05:04:35;;;;;;;7.93;4.15;;;;;;;;;;5013915;28;20034;-57
2022/08/05 05:07:02;;;;;;;9.98;4.20;;;;;;;;;;5014043;28;20129;-58
2022/08/05 05:09:29;;;;;;;8.32;4.10;;;;;;;;;;5013963;28;20025;-56
2022/08/05 05:11:56;;;;;;;7.32;3.63;;;;;;;;;;5013943;28;20411;-57
2022/08/05 05:14:23;;;;;;;6.25;3.53;;;;;;;;;;5013981;28;20037;-55
2022/08/05 05:16:49;;;;;;;8.43;3.67;;;;;;;;;;5013789;28;20026;-57
2022/08/05 05:19:16;;;;;;;7.07;3.60;;;;;;;;;;5013630;28;20411;-57
2022/08/05 05:21:43;;;;;;;7.93;3.88;;;;;;;;;;5013562;28;20495;-57
2022/08/05 05:24:10;;;;;;;8.15;3.85;;;;;;;;;;5013659;28;20062;-56
2022/08/05 05:26:37;;;;;;;8.60;3.65;;;;;;;;;;5013625;28;20459;-57
2022/08/05 05:29:07;;;;;;;11.07;4.20;;;;;;;;;;5013511;28;20336;-58
2022/08/05 05:31:34;;;;;;;8.30;3.90;;;;;;;;;;5013582;28;20026;-57
2022/08/05 05:34:01;;;;;;;7.65;3.47;;;;;;;;;;5013566;28;20561;-59
2022/08/05 05:36:28;;;;;;;9.70;3.78;;;;;;;;;;5012720;28;20129;-59
2022/08/05 05:38:55;;;;;;;7.18;4.05;;;;;;;;;;5013351;28;20507;-56
2022/08/05 05:41:22;;;;;;;8.88;3.42;;;;;;;;;;5013618;28;20044;-58
2022/08/05 05:43:49;;;;;;;6.65;3.25;;;;;;;;;;5013352;28;20042;-55
2022/08/05 05:46:16;;;;;;;7.53;3.72;;;;;;;;;;5013309;28;20156;-58
2022/08/05 05:48:44;;;;;;;7.63;3.70;;;;;;;;;;5013267;28;20084;-57
2022/08/05 05:51:11;;;;;;;6.93;3.45;;;;;;;;;;5013147;28;20088;-56
2022/08/05 05:53:38;;;;;;;7.40;3.22;;;;;;;;;;5013203;28;20040;-59
2022/08/05 05:56:05;;;;;;;9.50;3.35;;;;;;;;;;5013170;28;20049;-57
2022/08/05 05:58:32;;;;;;;5.57;3.40;;;;;;;;;;5013120;28;20062;-59
2022/08/05 06:01:02;;;;;;;6.93;3.45;;;;;;;;;;5010791;28;20402;-56
2022/08/05 06:03:29;;;;;;;6.72;3.58;;;;;;;;;;5013079;28;20041;-56
2022/08/05 06:05:56;;;;;;;7.93;3.65;;;;;;;;;;5012932;28;20424;-58
2022/08/05 06:08:23;;;;;;;7.53;3.80;;;;;;;;;;5013003;28;20383;-57
2022/08/05 06:10:50;;;;;;;5.53;3.35;;;;;;;;;;5012887;28;20049;-55
2022/08/05 06:13:17;;;;;;;7.82;2.97;;;;;;;;;;5012835;28;20384;-56
2022/08/05 06:15:44;;;;;;;8.25;3.40;;;;;;;;;;5012912;28;20038;-56
2022/08/05 06:18:11;;;;;;;7.80;2.97;;;;;;;;;;5012758;28;20030;-54
2022/08/05 06:20:38;;;;;;;6.18;3.05;;;;;;;;;;5012784;28;20034;-57
2022/08/05 06:23:05;;;;;;;6.78;2.75;;;;;;;;;;5012549;28;20446;-57
2022/08/05 06:25:32;;;;;;;6.43;2.97;;;;;;;;;;5012865;28;20038;-54
2022/08/05 06:27:58;;;;;;;5.68;3.40;;;;;;;;;;5012639;28;20060;-57
2022/08/05 06:30:26;;;;;;;5.97;3.15;;;;;;;;;;5012616;28;20495;-57
2022/08/05 06:32:53;;;;;;;6.90;3.30;;;;;;;;;;5012685;28;20045;-56
2022/08/05 06:35:20;;;;;;;4.32;2.80;;;;;;;;;;5012781;28;20026;-55
2022/08/05 06:37:47;;;;;;;6.00;3.13;;;;;;;;;;5164765;22;20540;-50
2022/08/05 06:40:14;;;;;;;6.53;2.83;;;;;;;;;;5012667;28;20468;-54
2022/08/05 06:42:41;;;;;;;5.93;2.92;;;;;;;;;;4994974;28;20115;-51
2022/08/05 06:45:08;;;;;;;4.88;2.88;;;;;;;;;;5012697;28;20026;-52
2022/08/05 06:47:35;;;;;;;4.80;2.72;;;;;;;;;;5013024;28;20065;-53
2022/08/05 06:50:02;;;;;;;4.47;2.72;;;;;;;;;;5016595;28;20037;-54
2022/08/05 06:52:29;;;;;;;6.35;2.90;;;;;;;;;;5016435;28;20399;-53
2022/08/05 06:54:56;;;;;;;7.63;2.60;;;;;;;;;;5016573;28;20044;-51
2022/08/05 06:57:23;;;;;;;4.95;2.70;;;;;;;;;;5016326;28;20084;-53
2022/08/05 06:59:50;;;;;;;3.90;2.42;;;;;;;;;;5016481;28;20443;-51
2022/08/05 07:02:17;;;;;;;5.38;2.97;;;;;;;;;;5016304;28;20058;-54
2022/08/05 07:04:44;;;;;;;5.97;2.80;;;;;;;;;;5016177;28;20034;-51
2022/08/05 07:07:11;;;;;;;4.25;2.65;;;;;;;;;;5016284;28;20033;-54
2022/08/05 07:09:38;;;;;;;5.93;2.70;;;;;;;;;;5016480;28;20105;-50
2022/08/05 07:12:05;;;;;;;7.32;2.80;;;;;;;;;;5016218;28;20504;-51
2022/08/05 07:17:17;;;;;;;4.70;2.80;;;;;;;;;;5016186;28;20403;-50
2022/08/05 07:19:44;;;;;;;4.70;2.40;;;;;;;;;;5016129;28;20030;-50
2022/08/05 07:22:11;;;;;;;5.18;2.60;;;;;;;;;;5016005;28;20049;-53
2022/08/05 07:24:38;;;;;;;5.88;2.88;;;;;;;;;;5016162;28;20037;-49
2022/08/05 07:27:05;;;;;;;6.45;2.80;;;;;;;;;;5015825;28;20103;-50
2022/08/05 07:29:32;;;;;;;4.43;2.60;;;;;;;;;;5015489;28;20034;-51
2022/08/05 07:31:59;;;;;;;6.78;3.05;;;;;;;;;;5015853;28;20026;-54
2022/08/05 07:34:26;;;;;;;6.30;3.08;;;;;;;;;;5015887;28;20030;-53
2022/08/05 07:36:53;;;;;;;4.53;2.45;;;;;;;;;;5015516;28;20077;-50
2022/08/05 07:39:20;;;;;;;5.95;3.00;;;;;;;;;;5015786;28;20060;-53
2022/08/05 07:41:47;;;;;;;7.72;2.65;;;;;;;;;;5015819;28;20382;-51
2022/08/05 07:44:14;;;;;;;5.13;2.60;;;;;;;;;;5015628;28;20030;-52
2022/08/05 07:46:41;;;;;;;5.82;2.75;;;;;;;;;;5015380;28;20030;-53
2022/08/05 07:49:08;;;;;;;6.43;2.92;;;;;;;;;;5015430;28;20030;-51
2022/08/05 07:51:36;;;;;;;6.05;2.92;;;;;;;;;;5015446;28;20506;-55
2022/08/05 07:54:03;;;;;;;5.00;2.47;;;;;;;;;;5015705;28;20384;-50
2022/08/05 07:56:30;;;;;;;5.72;2.67;;;;;;;;;;5015383;28;20022;-52
2022/08/05 07:58:57;;;;;;;3.85;2.40;;;;;;;;;;5015002;28;20028;-51
2022/08/05 08:01:26;;;;;;;5.18;2.80;;;;;;;;;;5014945;28;20021;-55
2022/08/05 08:03:53;;;;;;;3.85;2.63;;;;;;;;;;5015060;28;20045;-52
2022/08/05 08:06:20;;;;;;;5.85;2.70;;;;;;;;;;5015133;28;20026;-53
2022/08/05 08:08:47;;;;;;;4.22;2.50;;;;;;;;;;5015214;28;20621;-51
2022/08/05 08:11:14;;;;;;;5.50;2.63;;;;;;;;;;5015000;28;20117;-51
2022/08/05 08:13:41;;;;;;;6.13;2.90;;;;;;;;;;5014998;28;20045;-53
2022/08/05 08:16:08;;;;;;;5.53;2.92;;;;;;;;;;5014911;28;20170;-52
2022/08/05 08:18:35;;;;;;;3.70;2.63;;;;;;;;;;5015010;28;20030;-51
2022/08/05 08:21:02;;;;;;;4.05;2.72;;;;;;;;;;5015037;28;20029;-54
2022/08/05 08:23:29;;;;;;;4.95;2.90;;;;;;;;;;5014924;28;20026;-53
2022/08/05 08:25:56;;;;;;;5.57;2.95;;;;;;;;;;5014741;28;20029;-52
2022/08/05 08:28:23;;;;;;;5.43;2.45;;;;;;;;;;5014732;28;20494;-53
2022/08/05 08:30:50;;;;;;;6.28;3.00;;;;;;;;;;5014836;28;20064;-52
2022/08/05 08:33:17;;;;;;;8.13;2.78;;;;;;;;;;5014857;28;20030;-52
2022/08/05 08:35:44;;;;;;;6.43;2.80;;;;;;;;;;5014829;28;20105;-50
2022/08/05 08:38:13;;;;;;;6.10;2.97;;;;;;;;;;5014423;28;20128;-53
2022/08/05 08:40:40;;;;;;;5.30;2.75;;;;;;;;;;5014499;28;20447;-53
2022/08/05 08:43:07;;;;;;;5.45;2.92;;;;;;;;;;4996902;28;20046;-52
2022/08/05 08:45:36;;;;;;;4.55;3.22;;;;;;;;;;4996957;28;20038;-53
2022/08/05 08:48:04;;;;;;;4.47;2.65;;;;;;;;;;4996681;28;20454;-52
2022/08/05 08:50:34;;;;;;;4.55;2.90;;;;;;;;;;5014315;28;20084;-50
2022/08/05 08:53:05;;;;;;;5.70;2.88;;;;;;;;;;5014266;28;20037;-50
2022/08/05 08:55:33;;;;;;;5.43;2.88;;;;;;;;;;5014168;28;20057;-54
2022/08/05 08:58:03;;;;;;;4.45;2.38;;;;;;;;;;5014247;28;20040;-54
2022/08/05 09:00:30;;;;;;;5.30;2.63;;;;;;;;;;5014295;28;20113;-53
2022/08/05 09:02:58;;;;;;;4.28;2.50;;;;;;;;;;5014163;28;20030;-55
2022/08/05 09:05:25;;;;;;;5.38;2.58;;;;;;;;;;5014084;28;20030;-53
2022/08/05 09:07:53;;;;;;;5.30;2.90;;;;;;;;;;5014179;28;20030;-54
2022/08/05 09:10:20;;;;;;;6.82;2.75;;;;;;;;;;5013479;28;20129;-53
2022/08/05 09:12:48;;;;;;;4.70;2.80;;;;;;;;;;5014061;28;20027;-55
2022/08/05 09:15:15;;;;;;;4.95;3.25;;;;;;;;;;5013905;28;20052;-55
2022/08/05 09:17:41;;;;;;;3.85;2.47;;;;;;;;;;5013856;28;20018;-54
2022/08/05 09:20:09;;;;;;;4.63;2.30;;;;;;;;;;5013967;28;20025;-53
2022/08/05 09:22:54;;;;;;;4.90;2.65;;;;;;;;;;5013881;28;20041;-55
2022/08/05 09:25:21;;;;;;;5.80;2.63;;;;;;;;;;5013674;28;20399;-52
2022/08/05 09:27:48;;;;;;;3.95;2.53;;;;;;;;;;5013747;28;20033;-53
2022/08/05 09:30:16;;;;;;;4.30;2.83;;;;;;;;;;5013795;28;20025;-55
2022/08/05 09:32:43;;;;;;;3.63;2.40;;;;;;;;;;5013705;28;20487;-55
2022/08/05 09:35:15;;;;;;;7.15;2.85;;;;;;;;;;5013688;28;20159;-51
2022/08/05 09:37:55;;;;;;;3.83;2.10;;;;;;;;;;5013173;28;20526;-53
2022/08/05 09:40:36;;;;;;;4.00;2.33;;;;;;;;;;5013426;28;20484;-54
2022/08/05 09:43:05;;;;;;;3.95;2.35;;;;;;;;;;5013281;28;20407;-56
2022/08/05 09:45:43;;;;;;;4.57;2.60;;;;;;;;;;5013135;28;20066;-57
2022/08/05 09:48:26;;;;;;;5.47;2.80;;;;;;;;;;5013362;28;20079;-56
2022/08/05 09:50:55;;;;;;;4.90;2.45;;;;;;;;;;5013380;28;20038;-56
2022/08/05 09:53:23;;;;;;;4.68;2.60;;;;;;;;;;5012809;28;20514;-56
2022/08/05 09:56:00;;;;;;;4.57;2.40;;;;;;;;;;5013168;28;20033;-57
2022/08/05 09:58:27;;;;;;;4.22;2.42;;;;;;;;;;5013208;28;20488;-56
2022/08/05 10:00:56;;;;;;;3.47;2.33;;;;;;;;;;5013078;28;20030;-57
2022/08/05 10:03:23;;;;;;;3.80;2.40;;;;;;;;;;5013324;28;20065;-56
2022/08/05 10:06:03;;;;;;;4.90;2.40;;;;;;;;;;5012952;28;20037;-57
2022/08/05 10:08:31;;;;;;;3.05;2.22;;;;;;;;;;5013031;28;20053;-58
2022/08/05 10:10:58;;;;;;;3.53;2.20;;;;;;;;;;5013051;28;20030;-56
2022/08/05 10:13:42;;;;;;;4.00;2.63;;;;;;;;;;5013093;28;20080;-58
2022/08/05 10:16:27;;;;;;;4.10;2.35;;;;;;;;;;5012599;28;20033;-55
2022/08/05 10:18:54;;;;;;;5.40;2.50;;;;;;;;;;5012290;28;20037;-54
2022/08/05 10:21:21;;;;;;;2.97;2.03;;;;;;;;;;5011051;28;20021;-52
2022/08/05 10:23:49;;;;;;;5.78;2.03;;;;;;;;;;5010771;28;20084;-55
2022/08/05 10:26:16;;;;;;;4.55;2.28;;;;;;;;;;5010715;28;20034;-56
2022/08/05 10:28:44;;;;;;;3.95;2.30;;;;;;;;;;5011087;28;20724;-56
2022/08/05 10:31:12;;;;;;;3.90;2.30;;;;;;;;;;5012511;28;20060;-56
2022/08/05 10:33:39;;;;;;;3.80;2.30;;;;;;;;;;5012684;28;20026;-54
2022/08/05 10:36:06;;;;;;;3.83;2.25;;;;;;;;;;5012551;28;20029;-54
2022/08/05 10:38:35;;;;;;;4.65;2.47;;;;;;;;;;5012261;28;20038;-55
2022/08/05 10:41:07;;;;;;;4.10;2.30;;;;;;;;;;5012247;28;20038;-57
2022/08/05 10:43:43;;;;;;;4.32;2.15;;;;;;;;;;5011736;28;20080;-55
2022/08/05 10:46:12;;;;;;;5.13;2.20;;;;;;;;;;5006936;28;20453;-54
2022/08/05 10:48:39;;;;;;;9.07;2.58;;;;;;;;;;5011075;28;20038;-50
2022/08/05 10:51:08;;;;;;;5.25;2.90;;;;;;;;;;5010044;28;20026;-56
2022/08/05 10:53:39;;;;;;;5.72;3.13;;;;;;;;;;5012151;28;20021;-52
2022/08/05 10:56:11;;;;;;;10.20;3.63;;;;;;;;;;5011788;28;20024;-59
2022/08/05 10:58:47;;;;;;;10.30;3.78;;;;;;;;;;5011702;28;20033;-52
2022/08/05 11:01:14;;;;;;;6.50;3.65;;;;;;;;;;5011680;28;20037;-62
2022/08/05 11:04:00;;;;;;;5.82;2.83;;;;;;;;;;5012200;28;20038;-59
2022/08/05 11:06:27;;;;;;;5.70;3.35;;;;;;;;;;5011765;28;20018;-55
2022/08/05 11:09:14;;;;;;;5.00;2.70;;;;;;;;;;5012031;28;20040;-58
2022/08/05 11:11:43;;;;;;;7.22;3.47;;;;;;;;;;5011617;28;20048;-61
2022/08/05 11:14:11;;;;;;;5.60;3.67;;;;;;;;;;5011319;28;20041;-58
2022/08/05 11:16:38;;;;;;;5.63;3.38;;;;;;;;;;5011239;28;20134;-58
2022/08/05 11:19:24;;;;;;;7.95;3.33;;;;;;;;;;5010966;28;20064;-56
2022/08/05 11:21:51;;;;;;;5.95;3.00;;;;;;;;;;5012152;28;20045;-53
2022/08/05 11:24:19;;;;;;;5.57;3.47;;;;;;;;;;5010915;28;20088;-56
2022/08/05 11:26:47;;;;;;;8.05;3.30;;;;;;;;;;5011231;28;20044;-54
2022/08/05 11:29:34;;;;;;;9.70;3.63;;;;;;;;;;5011144;28;20038;-55
2022/08/05 11:32:33;;;;;;;5.00;2.83;;;;;;;;;;5002007;28;20411;-52
2022/08/05 11:35:00;;;;;;;7.72;3.50;;;;;;;;;;4972756;28;20033;-56
2022/08/05 11:37:43;;;;;;;10.02;3.50;;;;;;;;;;5007674;28;20050;-57
2022/08/05 11:40:09;;;;;;;;;;;;;;;;;;5007851;28;20121;-57
2022/08/05 11:42:39;;;;;;;6.55;3.70;;;;;;;;;;5014177;28;19961;-57
2022/08/05 11:45:06;;;;;;;6.57;3.58;;;;;;;;;;5014652;28;20109;-51
2022/08/05 11:47:36;;;;;;;5.38;3.20;;;;;;;;;;5014818;28;20045;-52
2022/08/05 11:50:03;;;;;;;5.28;3.72;;;;;;;;;;5014435;28;20488;-52
2022/08/05 11:52:30;;;;;;;7.30;3.80;;;;;;;;;;5014928;28;20025;-52
2022/08/05 11:54:58;;;;;;;6.95;3.60;;;;;;;;;;5014450;28;20022;-53
2022/08/05 11:57:30;;;;;;;7.10;4.13;;;;;;;;;;5014496;28;20029;-52
2022/08/05 11:59:58;;;;;;;7.22;4.22;;;;;;;;;;5015068;28;20037;-58
2022/08/05 12:02:27;;;;;;;7.43;4.65;;;;;;;;;;5014895;28;20081;-53
2022/08/05 12:04:54;;;;;;;7.93;4.25;;;;;;;;;;5014686;28;20590;-57
2022/08/05 12:07:21;;;;;;;7.53;4.40;;;;;;;;;;5013985;28;20491;-55
2022/08/05 12:09:49;;;;;;;8.73;3.72;;;;;;;;;;5015083;28;20036;-54
2022/08/05 12:12:29;;;;;;;8.02;4.25;;;;;;;;;;5015030;28;20442;-56
2022/08/05 12:14:56;;;;;;;7.57;3.95;;;;;;;;;;5014814;28;20022;-51
2022/08/05 12:17:26;;;;;;;8.45;4.68;;;;;;;;;;5013502;28;20411;-52
2022/08/05 12:19:56;;;;;;;8.05;4.47;;;;;;;;;;4997099;28;20038;-55
2022/08/05 12:22:28;;;;;;;8.40;4.97;;;;;;;;;;5014722;28;20042;-49
2022/08/05 12:24:56;;;;;;;7.05;4.50;;;;;;;;;;5014528;28;20088;-52
2022/08/05 12:27:27;;;;;;;12.70;5.13;;;;;;;;;;5013273;28;20050;-52
2022/08/05 12:30:21;;;;;;;9.30;5.03;;;;;;;;;;5014035;28;20034;-53
2022/08/05 12:32:54;;;;;;;9.65;5.40;;;;;;;;;;5010855;28;20499;-53
2022/08/05 12:35:23;;;;;;;6.60;4.90;;;;;;;;;;5013869;28;20546;-53
2022/08/05 12:37:50;;;;;;;8.05;4.82;;;;;;;;;;5013378;28;20050;-53
2022/08/05 12:40:17;;;;;;;9.70;5.85;;;;;;;;;;5014190;28;20064;-54
2022/08/05 12:42:45;;;;;;;11.35;5.82;;;;;;;;;;5014382;28;20041;-54
2022/08/05 12:45:13;;;;;;;10.73;6.00;;;;;;;;;;5013700;28;20554;-57
2022/08/05 12:47:40;;;;;;;14.25;6.18;;;;;;;;;;5013266;28;20111;-58
2022/08/05 12:50:14;;;;;;;8.30;5.20;;;;;;;;;;4996667;28;20030;-53
2022/08/05 12:52:41;;;;;;;9.77;5.20;;;;;;;;;;5014212;28;20021;-55
2022/08/05 12:55:18;;;;;;;12.52;5.95;;;;;;;;;;5014197;28;20021;-54
2022/08/05 12:57:45;;;;;;;14.45;5.63;;;;;;;;;;5014108;28;20018;-53
2022/08/05 13:00:22;;;;;;;9.07;5.28;;;;;;;;;;5013322;28;20032;-55
2022/08/05 13:02:49;;;;;;;12.43;5.82;;;;;;;;;;5014142;28;20057;-53
2022/08/05 13:05:16;;;;;;;10.50;5.47;;;;;;;;;;5014141;28;20542;-53
2022/08/05 13:07:45;;;;;;;11.57;6.10;;;;;;;;;;5013971;28;20022;-51
2022/08/05 13:10:13;;;;;;;10.70;5.25;;;;;;;;;;5014043;28;20018;-55
2022/08/05 13:12:41;;;;;;;12.38;5.78;;;;;;;;;;5014023;28;20054;-53
2022/08/05 13:15:10;;;;;;;13.80;5.63;;;;;;;;;;5013986;28;20033;-56
2022/08/05 13:17:37;;;;;;;11.23;6.00;;;;;;;;;;5013824;28;20187;-53
2022/08/05 13:20:08;;;;;;;11.85;5.72;;;;;;;;;;5013886;28;20466;-54
2022/08/05 13:22:39;;;;;;;14.35;6.22;;;;;;;;;;5013548;28;20445;-55
2022/08/05 13:25:07;;;;;;;14.48;6.25;;;;;;;;;;5013693;28;20061;-54
2022/08/05 13:27:35;;;;;;;16.45;6.13;;;;;;;;;;5012825;28;20563;-53
2022/08/05 13:30:03;;;;;;;13.40;6.28;;;;;;;;;;5013081;28;20042;-54
2022/08/05 13:32:30;;;;;;;18.70;6.60;;;;;;;;;;5013646;28;20112;-54
2022/08/05 13:34:57;;;;;;;19.83;6.93;;;;;;;;;;5013630;28;20104;-55
2022/08/05 13:37:24;;;;;;;17.83;6.03;;;;;;;;;;5013406;28;20451;-54
2022/08/05 13:39:55;;;;;;;15.55;5.95;;;;;;;;;;4995886;28;20038;-55
2022/08/05 13:42:23;;;;;;;18.08;6.78;;;;;;;;;;5013451;28;20097;-53
2022/08/05 13:44:53;;;;;;;16.92;6.38;;;;;;;;;;5013403;28;20034;-55
2022/08/05 13:47:21;;;;;;;13.23;6.07;;;;;;;;;;5013337;28;20045;-50
2022/08/05 13:49:48;;;;;;;13.20;6.30;;;;;;;;;;5013356;28;20026;-53
2022/08/05 13:52:16;;;;;;;13.02;6.53;;;;;;;;;;5013372;28;20112;-53
2022/08/05 13:54:44;;;;;;;16.73;6.28;;;;;;;;;;5013511;28;20041;-52
2022/08/05 13:57:12;;;;;;;12.68;6.25;;;;;;;;;;5012426;28;20395;-53
2022/08/05 13:59:39;;;;;;;25.88;6.72;;;;;;;;;;5013106;28;20026;-54
2022/08/05 14:02:07;;;;;;;16.08;6.03;;;;;;;;;;5013156;28;20030;-52
2022/08/05 14:07:26;;;;;;;20.48;6.82;;;;;;;;;;5013294;28;20112;-54
2022/08/05 14:09:53;;;;;;;16.73;7.25;;;;;;;;;;5013270;28;20029;-55
2022/08/05 14:12:20;;;;;;;19.63;7.38;;;;;;;;;;4995405;28;20388;-55
2022/08/05 14:14:47;;;;;;;19.70;6.55;;;;;;;;;;4995366;28;20450;-51
2022/08/05 14:17:15;;;;;;;19.63;6.65;;;;;;;;;;5012859;28;20025;-55
2022/08/05 14:19:42;;;;;;;21.27;6.80;;;;;;;;;;5012859;28;20026;-54
2022/08/05 14:22:09;;;;;;;26.15;7.43;;;;;;;;;;5012978;28;20022;-56
2022/08/05 14:24:38;;;;;;;19.88;6.88;;;;;;;;;;5012832;28;20137;-53
2022/08/05 14:27:05;;;;;;;22.15;7.20;;;;;;;;;;5012652;28;20024;-53
2022/08/05 14:29:33;;;;;;;26.77;6.30;;;;;;;;;;5012845;28;20105;-52
2022/08/05 14:32:00;;;;;;;34.22;7.38;;;;;;;;;;5012773;28;20033;-50
2022/08/05 14:34:27;;;;;;;30.50;7.00;;;;;;;;;;5012433;28;20125;-53
2022/08/05 14:36:54;;;;;;;26.55;6.63;;;;;;;;;;5012379;28;20053;-53
2022/08/05 14:39:21;;;;;;;43.42;6.18;;;;;;;;;;5012680;28;20518;-57
2022/08/05 14:41:48;;;;;;;28.27;6.63;;;;;;;;;;5012688;28;20026;-55
2022/08/05 14:44:15;;;;;;;23.05;6.05;;;;;;;;;;5012742;28;20113;-60
2022/08/05 14:46:42;;;;;;;15.43;6.15;;;;;;;;;;5012657;28;20034;-58
2022/08/05 14:49:09;;;;;;;23.60;6.10;;;;;;;;;;5012287;28;20545;-54
2022/08/05 14:51:36;;;;;;;22.65;5.65;;;;;;;;;;5012584;28;20030;-57
2022/08/05 14:54:06;;;;;;;26.30;5.97;;;;;;;;;;5012561;28;20018;-57